Time;durP1;ratioP1;P1;durP2;ratioP2;P2;SDS_P1;SDS_P2;PMS_P1;PMS_P2;Temp;Humidity;BMP_temperature;BMP_pressure;BME280_temperature;BME280_humidity;BME280_pressure;Samples;Min_cycle;Max_cycle;Signal;HPM_P1;HPM_P2
2024/04/10 00:00:06;;;;;;;5.88;1.80;;;10.40;99.90;;;13.85;62.78;100961.66;5420628;26;19994;-78
2024/04/10 00:02:32;;;;;;;6.10;1.88;;;10.50;99.90;;;13.83;63.12;100972.03;5447975;26;20675;-78
2024/04/10 00:04:57;;;;;;;4.97;1.90;;;10.40;99.90;;;13.86;63.81;100967.97;5445639;26;20111;-76
2024/04/10 00:07:24;;;;;;;5.43;2.15;;;10.40;99.90;;;13.79;63.27;100962.56;5449004;26;20038;-78
2024/04/10 00:09:49;;;;;;;7.85;2.20;;;10.40;99.90;;;13.54;64.02;100970.88;5417561;26;19999;-77
2024/04/10 00:12:15;;;;;;;6.00;2.38;;;10.40;99.90;;;13.79;64.29;100968.03;5447654;26;19999;-77
2024/04/10 00:14:41;;;;;;;9.98;2.65;;;10.40;99.90;;;13.60;63.85;100967.22;5448723;26;19991;-78
2024/04/10 00:17:06;;;;;;;8.50;2.10;;;10.50;99.90;;;13.82;63.73;100959.38;5448754;26;20327;-77
2024/04/10 00:19:32;;;;;;;7.18;2.30;;;10.50;99.90;;;13.77;63.57;100957.31;5447269;26;19991;-77
2024/04/10 00:21:58;;;;;;;8.98;2.33;;;10.40;99.90;;;13.78;63.94;100961.72;5446194;26;20010;-78
2024/04/10 00:24:23;;;;;;;7.93;2.60;;;10.40;99.90;;;13.60;63.92;100965.34;5447108;26;19996;-77
2024/04/10 00:26:50;;;;;;;6.10;2.58;;;10.40;99.90;;;13.40;64.64;100978.41;5449119;26;19999;-78
2024/04/10 00:29:16;;;;;;;6.07;2.38;;;10.40;99.90;;;13.38;64.04;100971.25;5447725;26;19995;-76
2024/04/10 00:31:42;;;;;;;7.15;2.80;;;10.50;99.90;;;13.55;63.88;100980.78;5447660;26;20087;-77
2024/04/10 00:34:08;;;;;;;6.45;2.60;;;10.50;99.90;;;13.81;64.01;100993.34;5448451;26;20022;-78
2024/04/10 00:36:33;;;;;;;9.50;3.08;;;10.50;99.90;;;13.95;63.24;100986.63;5445637;26;20006;-78
2024/04/10 00:38:59;;;;;;;5.60;2.35;;;10.40;99.90;;;13.89;64.06;100997.66;5446734;26;20089;-79
2024/04/10 00:41:25;;;;;;;6.22;2.13;;;10.30;99.90;;;13.72;63.84;101000.19;5440659;26;19995;-76
2024/04/10 00:43:51;;;;;;;5.72;2.22;;;10.40;99.90;;;13.59;64.70;101017.63;5447442;26;20092;-77
2024/04/10 00:46:19;;;;;;;7.72;2.55;;;10.40;99.90;;;13.69;64.36;101014.38;5448422;26;20018;-77
2024/04/10 00:48:46;;;;;;;10.15;2.40;;;10.40;99.90;;;13.84;64.73;101008.50;5447823;26;20018;-77
2024/04/10 00:51:22;;;;;;;9.38;2.38;;;10.40;99.90;;;13.89;64.96;101014.97;5447444;26;20003;-77
2024/04/10 00:53:49;;;;;;;9.57;2.67;;;10.30;99.90;;;13.54;65.54;101032.03;5416292;26;20002;-78
2024/04/10 00:56:16;;;;;;;5.75;2.33;;;10.30;99.90;;;13.52;66.03;101028.66;5444340;26;20092;-78
2024/04/10 00:58:42;;;;;;;7.00;2.45;;;10.30;99.90;;;13.56;66.44;101027.16;5447284;26;20477;-78
2024/04/10 01:01:10;;;;;;;6.63;2.35;;;10.30;99.90;;;13.54;66.49;101028.44;5418214;26;19995;-77
2024/04/10 01:03:38;;;;;;;9.05;2.63;;;10.30;99.90;;;13.54;65.73;101042.16;5446372;26;20068;-78
2024/04/10 01:06:09;;;;;;;8.82;2.67;;;10.20;99.90;;;13.64;65.70;101040.56;5445804;26;20075;-78
2024/04/10 01:08:37;;;;;;;7.70;2.50;;;10.20;99.90;;;13.45;67.42;101034.25;5417961;26;19995;-78
2024/04/10 01:11:05;;;;;;;11.10;2.92;;;10.20;99.90;;;13.37;67.11;101024.38;5445240;26;20438;-78
2024/04/10 01:13:33;;;;;;;9.63;2.63;;;10.20;99.90;;;13.49;66.91;101029.13;5448035;26;19998;-78
2024/04/10 01:17:10;;;;;;;15.48;3.33;;;10.20;99.90;;;13.31;67.45;101033.50;5410035;26;20358;-77
2024/04/10 01:19:36;;;;;;;9.80;2.83;;;10.20;99.90;;;13.32;67.41;101050.75;5401076;26;19997;-77
2024/04/10 01:22:02;;;;;;;8.73;2.83;;;10.20;99.90;;;13.33;67.80;101034.13;5397253;26;20011;-78
2024/04/10 01:24:28;;;;;;;8.93;2.83;;;10.20;99.90;;;13.65;67.24;101039.50;5398066;26;20070;-77
2024/04/10 01:26:53;;;;;;;7.90;2.92;;;10.20;99.90;;;13.48;67.05;101042.00;5370433;26;20080;-77
2024/04/10 01:29:19;;;;;;;7.10;3.15;;;10.10;99.90;;;13.30;68.29;101040.06;5398449;26;20012;-77
2024/04/10 01:31:45;;;;;;;10.50;3.22;;;10.10;99.90;;;13.55;67.37;101055.66;5427054;26;20076;-76
2024/04/10 01:34:10;;;;;;;8.80;2.65;;;10.10;99.90;;;13.37;67.85;101037.22;5411803;26;20015;-77
2024/04/10 01:36:36;;;;;;;9.30;3.00;;;10.00;99.90;;;13.45;69.35;101055.31;5425612;26;19999;-77
2024/04/10 01:39:02;;;;;;;7.30;2.72;;;10.00;99.90;;;13.44;68.49;101045.41;5399230;26;20040;-78
2024/04/10 01:41:27;;;;;;;6.28;3.00;;;10.00;99.90;;;13.56;68.47;101051.84;5397864;26;20442;-79
2024/04/10 01:43:54;;;;;;;10.35;3.53;;;10.00;99.90;;;13.28;69.26;101046.81;5396940;26;20004;-76
2024/04/10 01:46:19;;;;;;;9.38;3.22;;;9.90;99.90;;;13.30;69.31;101070.19;5398766;26;20003;-77
2024/04/10 01:48:45;;;;;;;7.00;2.97;;;9.90;99.90;;;13.41;69.57;101063.13;5419144;26;20020;-78
2024/04/10 01:51:10;;;;;;;9.68;3.28;;;9.90;99.90;;;13.37;69.38;101070.97;5421700;26;19996;-78
2024/04/10 01:53:36;;;;;;;10.40;3.65;;;9.80;99.90;;;13.25;69.94;101064.53;5398621;26;19995;-78
2024/04/10 01:56:02;;;;;;;11.60;3.80;;;9.80;99.90;;;13.09;71.72;101083.22;5398009;26;20082;-78
2024/04/10 01:58:29;;;;;;;10.40;3.47;;;9.80;99.90;;;12.93;71.56;101076.38;5398153;26;20011;-77
2024/04/10 02:00:55;;;;;;;12.95;3.63;;;9.80;99.90;;;13.23;71.40;101091.31;5395284;26;20015;-77
2024/04/10 02:03:21;;;;;;;11.98;3.30;;;9.80;99.90;;;13.45;70.57;101089.06;5398061;26;20002;-78
2024/04/10 02:05:46;;;;;;;11.43;3.38;;;9.70;99.90;;;13.03;71.28;101064.09;5383958;26;20013;-77
2024/04/10 02:08:12;;;;;;;12.23;4.22;;;9.60;99.90;;;13.02;72.22;101108.97;5402769;26;20414;-78
2024/04/10 02:10:38;;;;;;;9.30;3.83;;;9.60;99.90;;;13.15;71.89;101113.50;5365257;26;20028;-77
2024/04/10 02:13:03;;;;;;;9.93;3.90;;;9.60;99.90;;;13.14;72.35;101106.34;5396183;26;20015;-77
2024/04/10 02:15:29;;;;;;;8.98;3.65;;;9.50;99.90;;;13.09;72.93;101116.09;5396674;26;20000;-77
2024/04/10 02:17:55;;;;;;;10.18;3.67;;;9.60;99.90;;;13.26;71.80;101117.44;5398070;26;20008;-77
2024/04/10 02:20:21;;;;;;;8.40;3.60;;;9.50;99.90;;;13.35;71.76;101124.28;5395988;26;20012;-77
2024/04/10 02:22:47;;;;;;;10.68;3.95;;;9.50;99.90;;;13.15;71.16;101124.47;5388604;26;20309;-76
2024/04/10 02:25:13;;;;;;;11.32;4.15;;;9.60;99.90;;;13.32;72.32;101132.97;5398477;26;20093;-77
2024/04/10 02:27:39;;;;;;;14.18;3.75;;;9.60;99.90;;;13.27;71.81;101139.13;5388115;26;20028;-77
2024/04/10 02:30:06;;;;;;;9.80;4.13;;;9.70;99.90;;;13.27;71.96;101128.19;5391733;26;19992;-77
2024/04/10 02:32:32;;;;;;;11.35;4.05;;;9.70;99.90;;;13.53;70.49;101134.53;5383387;26;20443;-77
2024/04/10 02:34:58;;;;;;;10.38;3.90;;;9.70;99.90;;;13.38;71.07;101135.66;5381004;26;20003;-76
2024/04/10 02:37:24;;;;;;;13.90;4.07;;;9.70;99.90;;;13.56;69.46;101122.25;5382419;26;20331;-77
2024/04/10 02:39:50;;;;;;;8.90;4.80;;;9.80;99.90;;;13.01;71.08;101127.31;5380614;26;20008;-77
2024/04/10 02:42:15;;;;;;;12.23;3.90;;;9.90;99.90;;;13.48;70.46;101137.94;5369097;26;20038;-78
2024/04/10 02:44:44;;;;;;;12.30;4.00;;;9.90;99.90;;;13.51;70.08;101144.84;5381559;26;20317;-77
2024/04/10 02:47:10;;;;;;;10.07;4.00;;;9.90;99.90;;;13.30;69.96;101137.84;5382506;26;20012;-77
2024/04/10 02:49:36;;;;;;;13.05;4.47;;;9.90;99.90;;;13.36;71.28;101167.94;5371789;26;20000;-77
2024/04/10 02:52:03;;;;;;;10.23;4.32;;;10.00;99.90;;;13.55;70.67;101168.03;5381704;26;20000;-76
2024/04/10 02:54:28;;;;;;;14.27;4.60;;;10.00;99.90;;;13.42;70.51;101171.69;5382252;26;20023;-78
2024/04/10 02:56:55;;;;;;;11.95;4.53;;;10.00;99.90;;;13.45;70.48;101167.69;5405228;26;20234;-77
2024/04/10 02:59:20;;;;;;;13.85;4.53;;;10.00;99.90;;;13.51;70.64;101177.75;5383354;26;19996;-78
2024/04/10 03:01:46;;;;;;;12.18;4.22;;;9.90;99.90;;;13.21;70.96;101175.63;5397916;26;20073;-77
2024/04/10 03:04:12;;;;;;;8.35;3.60;;;9.90;99.90;;;13.07;72.17;101180.34;5382032;26;20004;-77
2024/04/10 03:06:38;;;;;;;14.65;3.80;;;9.90;99.90;;;13.32;71.48;101185.88;5380108;26;20015;-77
2024/04/10 03:09:04;;;;;;;16.02;4.13;;;9.90;99.90;;;13.11;72.37;101173.38;5381709;26;20064;-77
2024/04/10 03:11:30;;;;;;;14.50;4.03;;;9.90;99.90;;;13.07;71.90;101164.78;5351726;26;19996;-77
2024/04/10 03:13:55;;;;;;;15.63;4.70;;;9.90;99.90;;;13.18;72.70;101176.06;5361768;26;20032;-77
2024/04/10 03:16:21;;;;;;;13.30;4.13;;;9.80;99.90;;;13.15;74.07;101179.25;5361296;26;20335;-77
2024/04/10 03:18:47;;;;;;;13.40;3.88;;;9.80;99.90;;;13.04;73.48;101187.13;5358991;26;20005;-77
2024/04/10 03:21:12;;;;;;;11.15;4.07;;;9.80;99.90;;;13.00;74.13;101193.25;5359752;26;20016;-77
2024/04/10 03:23:38;;;;;;;12.65;4.13;;;9.80;99.90;;;13.05;73.90;101197.03;5381479;26;20044;-76
2024/04/10 03:26:06;;;;;;;10.32;4.50;;;9.70;99.90;;;13.18;73.82;101209.78;5382076;26;19996;-77
2024/04/10 03:28:33;;;;;;;11.57;4.22;;;9.70;99.90;;;13.20;73.64;101212.28;5381688;26;19996;-77
2024/04/10 03:31:01;;;;;;;14.10;4.30;;;9.70;99.90;;;13.17;72.56;101204.53;5381278;26;19993;-77
2024/04/10 03:33:26;;;;;;;13.82;4.07;;;9.70;99.90;;;13.22;73.71;101243.06;5381220;26;20069;-77
2024/04/10 03:35:53;;;;;;;12.05;4.80;;;9.70;99.90;;;13.19;73.36;101225.19;5381830;26;20008;-77
2024/04/10 03:38:19;;;;;;;12.35;4.40;;;9.70;99.90;;;13.06;74.88;101239.78;5404967;26;20000;-77
2024/04/10 03:40:46;;;;;;;10.60;4.22;;;9.70;99.90;;;13.26;72.84;101241.56;5381911;26;20015;-78
2024/04/10 03:43:12;;;;;;;12.75;3.75;;;9.60;99.90;;;13.34;72.58;101234.97;5381948;26;20078;-78
2024/04/10 03:45:38;;;;;;;13.00;4.70;;;9.60;99.90;;;13.01;73.89;101257.94;5348152;26;20012;-78
2024/04/10 03:48:04;;;;;;;13.38;4.50;;;9.60;99.90;;;13.43;72.84;101254.75;5380925;26;20004;-78
2024/04/10 03:50:30;;;;;;;13.35;3.97;;;9.60;99.90;;;13.28;72.65;101250.41;5380676;26;19996;-78
2024/04/10 03:52:57;;;;;;;10.90;3.95;;;9.50;99.90;;;13.16;73.17;101258.50;5380314;26;20420;-77
2024/04/10 03:55:23;;;;;;;15.02;4.10;;;9.50;99.90;;;13.20;72.84;101264.34;5380802;26;19992;-77
2024/04/10 03:57:49;;;;;;;13.18;4.25;;;9.60;99.90;;;13.26;74.21;101268.97;5330441;26;20011;-77
2024/04/10 04:00:15;;;;;;;12.43;3.70;;;9.60;99.90;;;13.22;73.57;101273.19;5380806;26;20469;-77
2024/04/10 04:02:44;;;;;;;12.65;4.57;;;9.60;99.90;;;13.52;72.34;101278.09;5381172;26;20438;-77
2024/04/10 04:05:10;;;;;;;12.23;4.25;;;9.60;99.90;;;13.07;72.96;101285.28;5380468;26;20012;-77
2024/04/10 04:07:36;;;;;;;14.98;3.92;;;9.60;99.90;;;13.05;74.94;101287.41;5374022;26;20019;-76
2024/04/10 04:10:02;;;;;;;13.93;4.25;;;9.60;99.90;;;13.21;74.62;101298.91;5388292;26;20341;-77
2024/04/10 04:12:27;;;;;;;11.10;3.80;;;9.60;99.90;;;13.42;73.57;101299.66;5381123;26;20463;-77
2024/04/10 04:14:53;;;;;;;13.40;3.92;;;9.70;99.90;;;13.52;72.35;101311.00;5379209;26;19996;-78
2024/04/10 04:17:19;;;;;;;13.00;3.90;;;9.70;99.90;;;13.32;73.04;101322.03;5381292;26;20004;-77
2024/04/10 04:19:45;;;;;;;13.55;3.53;;;9.60;99.90;;;13.17;74.07;101341.50;5381081;26;20000;-77
2024/04/10 04:22:11;;;;;;;11.68;3.75;;;9.70;99.90;;;12.92;74.65;101339.47;5395852;26;20000;-77
2024/04/10 04:24:36;;;;;;;13.20;3.97;;;9.70;99.90;;;13.05;75.24;101344.94;5378804;26;20024;-78
2024/04/10 04:27:02;;;;;;;14.73;3.42;;;9.70;99.90;;;13.40;74.00;101345.63;5379244;26;20012;-78
2024/04/10 04:29:29;;;;;;;10.63;3.22;;;9.70;99.90;;;13.12;75.24;101360.50;5380620;26;20011;-78
2024/04/10 04:31:54;;;;;;;9.35;3.20;;;9.70;99.90;;;13.30;75.41;101376.22;5367392;26;20005;-78
2024/04/10 04:34:20;;;;;;;15.00;3.35;;;9.70;99.90;;;13.32;74.48;101382.31;5384108;26;20047;-78
2024/04/10 04:36:46;;;;;;;9.70;3.30;;;9.70;99.90;;;13.29;75.12;101393.72;5401391;26;20027;-78
2024/04/10 04:39:13;;;;;;;14.35;3.10;;;9.70;99.90;;;13.24;74.59;101381.53;5403584;26;20000;-77
2024/04/10 04:41:39;;;;;;;12.52;3.10;;;9.70;99.90;;;12.88;75.18;101385.66;5392863;26;19999;-77
2024/04/10 04:44:04;;;;;;;11.02;3.38;;;9.70;99.90;;;13.36;74.90;101403.59;5371223;26;20007;-77
2024/04/10 04:46:30;;;;;;;12.77;3.35;;;9.70;99.90;;;12.82;75.02;101405.66;5402204;26;20073;-79
2024/04/10 04:48:56;;;;;;;13.45;3.28;;;9.70;99.90;;;13.23;74.14;101428.31;5379178;26;20004;-78
2024/04/10 04:51:22;;;;;;;12.52;3.00;;;9.60;99.90;;;13.20;74.47;101440.56;5377907;26;20078;-79
2024/04/10 04:53:47;;;;;;;14.30;3.10;;;9.60;99.90;;;13.43;73.33;101424.69;5380565;26;20010;-79
2024/04/10 04:56:13;;;;;;;13.57;2.97;;;9.60;99.90;;;13.30;73.55;101417.31;5379007;26;20008;-78
2024/04/10 04:58:39;;;;;;;10.68;2.95;;;9.70;99.90;;;13.38;72.99;101420.66;5364799;26;20000;-78
2024/04/10 05:01:06;;;;;;;13.23;2.97;;;9.70;99.90;;;13.55;71.66;101431.19;5379573;26;20431;-77
2024/04/10 05:06:17;;;;;;;11.60;2.92;;;9.60;99.90;;;13.39;73.19;101443.41;5373973;26;20436;-78
2024/04/10 05:08:43;;;;;;;11.50;2.67;;;9.60;99.90;;;13.16;72.97;101443.94;5380143;26;20008;-77
2024/04/10 05:11:09;;;;;;;8.75;2.67;;;9.60;99.90;;;13.64;72.09;101446.31;5380270;26;20028;-77
2024/04/10 05:13:36;;;;;;;13.52;2.60;;;9.60;99.90;;;13.70;72.18;101452.84;5378749;26;20315;-78
2024/04/10 05:16:03;;;;;;;11.13;2.58;;;9.60;99.90;;;13.69;71.22;101450.31;5379710;26;20401;-80
2024/04/10 05:18:28;;;;;;;9.10;2.83;;;9.60;99.90;;;13.70;70.17;101443.75;5361963;26;20653;-79
2024/04/10 05:20:54;;;;;;;11.85;2.60;;;9.60;99.90;;;13.91;69.25;101451.66;5394717;26;19996;-79
2024/04/10 05:23:20;;;;;;;11.48;2.60;;;9.60;99.90;;;13.83;69.80;101449.19;5377057;26;20355;-77
2024/04/10 05:25:48;;;;;;;14.55;2.97;;;9.60;99.90;;;13.80;69.01;101453.19;5377367;26;19996;-80
2024/04/10 05:28:14;;;;;;;11.15;3.33;;;9.70;99.90;;;13.78;70.12;101471.78;5399747;26;20320;-80
2024/04/10 05:30:41;;;;;;;15.15;3.30;;;9.60;99.90;;;13.32;71.81;101489.19;5376170;26;20177;-80
2024/04/10 05:33:06;;;;;;;13.30;2.95;;;9.60;99.90;;;13.57;71.78;101491.25;5379035;26;19996;-82
2024/04/10 05:35:32;;;;;;;13.10;3.42;;;9.60;99.90;;;13.71;71.49;101497.53;5378662;26;20003;-79
2024/04/10 05:37:59;;;;;;;12.52;3.08;;;9.60;99.90;;;13.65;71.67;101489.13;5379350;26;20001;-82
2024/04/10 05:40:25;;;;;;;13.52;3.15;;;9.70;99.90;;;13.55;72.83;101507.94;5407567;26;20386;-80
2024/04/10 05:42:51;;;;;;;12.13;2.88;;;9.70;99.90;;;13.68;71.58;101512.53;5378185;26;20036;-82
2024/04/10 05:45:17;;;;;;;12.48;3.40;;;9.70;99.90;;;13.52;72.26;101509.22;5405624;26;20074;-81
2024/04/10 05:47:49;;;;;;;15.45;3.25;;;9.70;99.90;;;13.74;72.35;101527.25;5377247;26;20078;-79
2024/04/10 05:50:17;;;;;;;14.05;3.22;;;9.70;99.90;;;13.71;71.52;101525.81;5350149;26;20518;-80
2024/04/10 05:52:43;;;;;;;12.13;3.30;;;9.80;99.90;;;13.25;73.24;101511.13;5374988;26;20012;-79
2024/04/10 05:55:10;;;;;;;9.95;3.20;;;9.70;99.90;;;13.65;72.18;101527.50;5379231;26;20015;-79
2024/04/10 05:57:37;;;;;;;10.00;3.00;;;9.70;99.90;;;13.65;72.46;101522.03;5379599;26;20011;-79
2024/04/10 06:00:04;;;;;;;14.65;3.45;;;9.70;99.90;;;13.84;71.71;101530.41;5390418;26;20011;-79
2024/04/10 06:02:40;;;;;;;14.05;3.33;;;9.70;99.90;;;13.64;71.58;101539.53;5379453;26;20012;-79
2024/04/10 06:05:06;;;;;;;17.25;3.53;;;9.80;99.90;;;13.88;70.51;101537.13;5383355;26;20011;-79
2024/04/10 06:07:36;;;;;;;15.80;3.70;;;9.90;99.90;;;13.81;70.49;101547.31;5377466;26;20012;-79
2024/04/10 06:10:04;;;;;;;11.25;3.05;;;9.90;99.90;;;14.04;69.95;101546.78;5380499;26;19999;-80
2024/04/10 06:12:30;;;;;;;13.63;3.42;;;10.00;99.90;;;14.02;69.09;101553.53;5377282;26;20032;-79
2024/04/10 06:14:55;;;;;;;11.00;3.13;;;10.10;99.90;;;14.08;68.18;101533.47;5388142;26;19995;-80
2024/04/10 06:17:22;;;;;;;10.73;3.20;;;10.10;99.90;;;13.90;70.46;101545.13;5377413;26;20008;-80
2024/04/10 06:19:49;;;;;;;8.98;3.17;;;10.20;99.90;;;14.27;69.17;101555.50;5376964;26;20089;-79
2024/04/10 06:22:14;;;;;;;13.43;3.63;;;10.30;99.90;;;14.12;67.70;101544.81;5377936;26;20004;-79
2024/04/10 06:24:44;;;;;;;11.50;3.35;;;10.40;99.90;;;14.15;68.66;101558.97;5391065;26;19996;-79
2024/04/10 06:27:11;;;;;;;10.50;3.20;;;10.40;99.90;;;14.22;67.81;101548.78;5382111;26;20036;-77
2024/04/10 06:29:44;;;;;;;15.50;3.00;;;10.50;99.90;;;14.67;66.46;101569.00;5382066;26;20007;-79
2024/04/10 06:32:13;;;;;;;9.00;2.80;;;10.70;99.90;;;14.22;66.40;101545.22;5367015;26;20065;-78
2024/04/10 06:34:40;;;;;;;11.75;3.00;;;10.80;99.90;;;14.24;67.46;101565.06;5393893;26;20123;-79
2024/04/10 06:37:06;;;;;;;11.18;2.88;;;10.80;99.90;;;14.38;65.86;101565.81;5381951;26;20087;-80
2024/04/10 06:39:33;;;;;;;11.70;2.55;;;10.80;99.90;;;14.66;65.96;101568.16;5370487;26;20041;-79
2024/04/10 06:41:58;;;;;;;9.40;3.10;;;11.00;99.90;;;14.59;65.49;101567.38;5376746;26;19997;-78
2024/04/10 06:44:24;;;;;;;9.23;2.92;;;11.00;99.90;;;14.70;64.92;101564.97;5337402;26;20312;-78
2024/04/10 06:46:50;;;;;;;11.75;3.08;;;11.10;99.90;;;14.84;65.34;101573.97;5377091;26;20003;-78
2024/04/10 06:49:15;;;;;;;9.20;3.20;;;11.10;99.90;;;14.07;66.78;101586.66;5377422;26;19996;-78
2024/04/10 06:51:41;;;;;;;9.02;2.85;;;11.00;99.90;;;14.72;65.80;101593.94;5376594;26;19996;-78
2024/04/10 06:54:07;;;;;;;11.88;3.78;;;11.10;99.90;;;15.09;65.43;101594.06;5374366;26;19996;-78
2024/04/10 06:56:33;;;;;;;10.10;3.33;;;11.10;99.90;;;14.65;66.44;101584.88;5381097;26;20126;-78
2024/04/10 06:58:59;;;;;;;7.78;2.30;;;11.10;99.90;;;14.42;67.26;101604.63;5379946;26;20004;-78
2024/04/10 07:01:25;;;;;;;9.77;3.03;;;11.00;99.90;;;14.51;67.44;101606.91;5391680;26;20076;-78
2024/04/10 07:03:51;;;;;;;7.32;2.42;;;11.10;99.90;;;14.76;67.06;101619.06;5390886;26;20005;-79
2024/04/10 07:06:20;;;;;;;13.32;2.35;;;11.10;99.90;;;14.55;67.32;101614.69;5380757;26;20028;-78
2024/04/10 07:08:47;;;;;;;13.07;2.65;;;11.00;99.90;;;14.69;67.16;101624.56;5409919;26;20016;-79
2024/04/10 07:11:16;;;;;;;10.00;2.70;;;10.90;99.90;;;14.88;67.50;101642.00;5390541;26;20003;-79
2024/04/10 07:13:45;;;;;;;8.27;2.00;;;11.10;99.90;;;14.68;65.74;101631.09;5423781;26;19999;-79
2024/04/10 07:16:11;;;;;;;8.30;2.22;;;11.20;99.90;;;14.36;66.56;101639.31;5389881;26;20015;-79
2024/04/10 07:18:36;;;;;;;10.05;2.28;;;11.30;99.90;;;14.71;65.67;101651.81;5390217;26;20000;-78
2024/04/10 07:21:08;;;;;;;6.22;1.67;;;11.40;99.90;;;14.64;65.10;101654.59;5382781;26;20019;-78
2024/04/10 07:23:37;;;;;;;11.27;1.92;;;11.50;99.90;;;14.64;64.59;101663.66;5391328;26;20012;-79
2024/04/10 07:26:20;;;;;;;8.95;1.85;;;11.50;99.90;;;14.03;66.07;101652.09;5381406;26;20012;-78
2024/04/10 07:28:55;;;;;;;9.93;1.85;;;11.30;99.90;;;14.61;63.22;101668.75;5385642;26;20006;-79
2024/04/10 07:31:35;;;;;;;9.60;2.40;;;11.20;99.90;;;14.15;65.88;101659.63;5388989;26;20008;-79
2024/04/10 07:34:03;;;;;;;7.03;1.77;;;11.20;99.90;;;13.73;66.55;101679.16;5381705;26;20114;-78
2024/04/10 07:36:33;;;;;;;7.40;1.70;;;11.20;99.90;;;13.02;70.42;101693.22;5384097;26;20748;-78
2024/04/10 07:38:59;;;;;;;7.35;1.50;;;11.00;99.90;;;14.41;65.53;101680.66;5410147;26;20017;-78
2024/04/10 07:41:25;;;;;;;7.47;1.90;;;11.30;99.90;;;14.60;64.76;101680.81;5369886;26;20028;-79
2024/04/10 07:43:51;;;;;;;7.35;1.88;;;11.40;99.90;;;15.06;64.50;101687.94;5382404;26;20006;-80
2024/04/10 07:46:20;;;;;;;7.78;1.70;;;11.80;99.90;;;14.92;63.03;101678.13;5382370;26;19999;-79
2024/04/10 07:48:52;;;;;;;6.38;1.80;;;11.90;99.90;;;14.15;66.51;101682.44;5381990;26;20046;-79
2024/04/10 07:51:18;;;;;;;10.15;2.28;;;11.70;99.90;;;14.46;68.09;101702.00;5372549;26;20070;-81
2024/04/10 07:53:44;;;;;;;7.35;1.83;;;11.60;99.90;;;14.41;65.12;101686.16;5381587;26;20425;-80
2024/04/10 07:56:13;;;;;;;10.43;2.00;;;11.70;99.90;;;13.98;66.48;101709.50;5381322;26;20074;-80
2024/04/10 07:58:40;;;;;;;6.80;1.83;;;11.60;99.90;;;15.04;64.48;101712.06;5380890;26;20319;-79
2024/04/10 08:01:06;;;;;;;10.07;2.22;;;11.70;99.90;;;14.59;66.00;101715.66;5378758;26;20004;-80
2024/04/10 08:03:34;;;;;;;7.53;1.77;;;11.70;99.90;;;14.47;65.74;101706.41;5360021;26;20512;-79
2024/04/10 08:06:07;;;;;;;6.60;1.83;;;11.70;99.90;;;13.86;66.60;101706.56;5383954;26;20440;-80
2024/04/10 08:08:33;;;;;;;8.23;1.83;;;11.60;99.90;;;14.36;66.09;101705.19;5380661;26;20077;-81
2024/04/10 08:11:04;;;;;;;6.32;2.10;;;11.70;99.90;;;14.15;67.53;101714.53;5382907;26;20020;-81
2024/04/10 08:13:32;;;;;;;7.20;1.90;;;11.60;99.90;;;15.35;64.39;101718.59;5408545;26;20050;-82
2024/04/10 08:16:06;;;;;;;11.05;2.20;;;11.80;99.90;;;15.35;61.67;101713.13;5387919;26;20000;-82
2024/04/10 08:18:39;;;;;;;10.73;2.20;;;12.00;99.90;;;14.65;63.69;101723.00;5384584;26;20745;-81
2024/04/10 08:21:08;;;;;;;7.03;1.90;;;11.80;99.90;;;14.94;63.88;101742.75;5383992;26;19991;-81
2024/04/10 08:23:36;;;;;;;5.03;1.60;;;11.60;99.90;;;14.31;64.10;101729.66;5390936;26;20027;-79
2024/04/10 08:26:14;;;;;;;8.63;2.08;;;11.60;99.90;;;14.90;63.91;101748.94;5390497;26;20291;-78
2024/04/10 08:28:48;;;;;;;6.80;1.83;;;11.80;99.90;;;14.76;63.17;101738.00;5343226;26;20073;-79
2024/04/10 08:31:21;;;;;;;6.35;1.80;;;12.00;99.90;;;14.98;62.68;101753.31;5383784;26;19992;-79
2024/04/10 08:33:47;;;;;;;7.38;1.90;;;12.10;99.90;;;14.57;61.68;101722.41;5388486;26;20010;-78
2024/04/10 08:36:14;;;;;;;6.50;1.70;;;12.10;99.90;;;15.19;60.68;101750.22;5379993;26;20417;-79
2024/04/10 08:38:41;;;;;;;9.85;1.63;;;12.20;99.90;;;15.73;57.14;101729.75;5379803;26;19992;-79
2024/04/10 08:41:17;;;;;;;8.93;1.70;;;12.50;99.90;;;15.59;57.00;101748.28;5373930;26;20005;-80
2024/04/10 08:43:46;;;;;;;8.02;1.70;;;12.50;99.90;;;14.57;60.40;101774.56;5381476;26;19992;-78
2024/04/10 08:46:14;;;;;;;7.65;1.83;;;12.00;99.90;;;15.14;59.43;101762.97;5381017;26;20073;-80
2024/04/10 08:48:42;;;;;;;7.53;1.90;;;12.10;99.90;;;15.20;58.73;101765.66;5381609;26;19997;-77
2024/04/10 08:51:14;;;;;;;11.90;2.00;;;12.20;99.90;;;15.20;62.60;101797.81;5379137;26;20451;-80
2024/04/10 08:53:44;;;;;;;9.13;2.28;;;12.40;99.90;;;15.21;61.09;101783.84;5378572;26;19992;-79
2024/04/10 08:56:14;;;;;;;6.05;2.00;;;12.60;99.90;;;16.32;60.08;101798.25;5381714;26;19992;-80
2024/04/10 08:58:39;;;;;;;7.45;2.05;;;12.80;99.90;;;16.55;58.11;101783.78;5371312;26;20016;-80
2024/04/10 09:01:06;;;;;;;10.27;1.90;;;13.20;99.90;;;16.43;58.66;101780.94;5380559;26;20000;-80
2024/04/10 09:03:34;;;;;;;9.68;2.10;;;13.40;99.90;;;16.73;55.40;101771.94;5380361;26;20012;-80
2024/04/10 09:06:08;;;;;;;13.05;2.47;;;13.50;99.90;;;16.00;57.01;101781.81;5380731;26;20000;-80
2024/04/10 09:08:35;;;;;;;7.82;2.13;;;13.10;99.90;;;16.52;55.43;101779.59;5381427;26;19997;-79
2024/04/10 09:11:01;;;;;;;6.30;1.77;;;13.30;99.90;;;16.79;54.40;101782.03;5380965;26;20031;-80
2024/04/10 09:13:28;;;;;;;6.50;1.63;;;13.50;99.90;;;16.81;53.38;101771.63;5379192;26;20095;-80
2024/04/10 09:15:58;;;;;;;7.20;1.90;;;13.80;99.90;;;17.34;52.61;101780.25;5362963;26;20993;-79
2024/04/10 09:18:24;;;;;;;8.07;2.10;;;13.90;99.90;;;17.70;53.01;101783.13;5363498;26;19992;-81
2024/04/10 09:20:49;;;;;;;11.07;2.63;;;14.00;99.90;;;16.94;52.43;101783.53;5377514;26;20032;-79
2024/04/10 09:23:16;;;;;;;5.13;1.92;;;13.90;99.90;;;16.93;52.13;101773.59;5394190;26;20008;-79
2024/04/10 09:25:42;;;;;;;6.53;1.80;;;13.80;99.90;;;15.67;54.77;101792.00;5373641;26;20410;-79
2024/04/10 09:28:08;;;;;;;4.25;1.60;;;13.30;99.90;;;16.29;53.86;101801.44;5378298;26;20451;-80
2024/04/10 09:30:36;;;;;;;10.20;1.80;;;13.30;99.90;;;16.54;53.19;101785.72;5380094;26;20324;-79
2024/04/10 09:33:04;;;;;;;8.05;1.90;;;13.20;99.90;;;16.02;53.48;101794.28;5378430;26;20099;-78
2024/04/10 09:35:33;;;;;;;6.82;1.45;;;13.10;99.90;;;16.58;52.40;101786.09;5345843;26;19997;-79
2024/04/10 09:38:01;;;;;;;7.00;1.42;;;13.30;99.90;;;16.65;52.62;101794.28;5381293;26;20004;-80
2024/04/10 09:40:30;;;;;;;4.63;1.73;;;13.40;99.90;;;17.11;51.89;101794.81;5376970;26;20071;-79
2024/04/10 09:43:04;;;;;;;10.77;1.70;;;13.50;99.90;;;17.32;51.62;101796.22;5372267;26;20011;-79
2024/04/10 09:45:37;;;;;;;8.57;1.50;;;13.70;99.90;;;17.02;49.97;101779.66;5360492;26;20004;-78
2024/04/10 09:48:08;;;;;;;5.72;1.40;;;13.70;99.90;;;17.55;48.50;101769.78;5383620;26;20015;-79
2024/04/10 09:50:37;;;;;;;4.95;1.33;;;13.90;99.90;;;17.63;48.42;101768.56;5382167;26;20008;-79
2024/04/10 09:53:07;;;;;;;5.18;1.30;;;14.20;99.90;;;18.15;47.80;101776.22;5402736;26;20007;-80
2024/04/10 09:55:40;;;;;;;6.35;1.40;;;14.60;99.90;;;17.80;47.35;101760.47;5383274;26;19996;-79
2024/04/10 09:58:10;;;;;;;7.05;1.20;;;14.60;99.90;;;18.02;46.71;101759.88;5382261;26;20011;-79
2024/04/10 10:00:37;;;;;;;5.63;1.40;;;14.60;99.90;;;18.44;44.83;101743.16;5382866;26;20000;-80
2024/04/10 10:03:05;;;;;;;5.13;1.60;;;14.90;99.90;;;18.07;46.12;101748.97;5384039;26;20006;-79
2024/04/10 10:05:31;;;;;;;4.35;1.35;;;14.80;99.90;;;17.71;47.66;101768.25;5388497;26;20108;-81
2024/04/10 10:08:05;;;;;;;4.97;1.25;;;14.70;99.90;;;17.82;46.07;101736.22;5379483;26;19997;-80
2024/04/10 10:10:46;;;;;;;5.18;1.50;;;14.70;99.90;;;16.93;48.13;101757.03;5380181;26;20008;-77
2024/04/10 10:13:12;;;;;;;7.03;1.60;;;;;;;19.01;45.24;101774.75;5370972;26;20089;-77
2024/04/10 10:15:39;;;;;;;7.10;1.42;;;;;;;19.15;43.10;101752.34;5382402;26;20035;-77